x

Ne Bahamas - 350 Nm Ene Of Nassau, Bahamas (41047) Wave Buoy

4:50am - Mon 28th Jul 2014 All times are UTC.

  • Sig Wave height 3.3ft
  • Swell Direction
  • Peak Period 8s
  • Average Period 6s
  • Wind
    7mph, 9mph gusts
  • Sea Temp 85°f
  • Air Temp 83°f
  • Sea Pressure 1019.7mb

More Historic Weather Station data

Upgrade to MSW Pro to gain access to the past 30 days of data for over 8000 Wavebouys and Weather Stations around the globe.

Join Pro

Comparision Forecast

View Surf forecast
   
Mon 07/28 4:50am 3.5ft 8s 6s 7 9 mph 1019.7mb 85f 83f
3:50am 3.5ft 8s 6s 7 9 mph 1019.9mb 85f 83f
2:50am 3ft 8s 6s 4 7 mph 1020.3mb 85f 83f
1:50am 3ft 7s 6s 4 7 mph 1020.6mb 86f 83f
12:50am 3ft 8s 6s 4 7 mph 1020.6mb 86f 83f
Sun 07/27 11:50pm 3ft 8s 6s 4 7 mph 1020.4mb 86f 84f
10:50pm 3.5ft 8s 7s 4 7 mph 1019.8mb 86f 84f
9:50pm 3.5ft 9s 6s 7 9 mph 1019.9mb 87f 84f
8:50pm 3ft 8s 6s 4 7 mph 1019.6mb 87f 84f
7:50pm 3.5ft 8s 6s 4 7 mph 1019.8mb 87f 84f
6:50pm 3ft 8s 6s 4 7 mph 1020.3mb 87f 83f
5:50pm 3.5ft 8s 7s 7
mph
1020.7mb 86f 83f
4:50pm 3ft 8s 6s 4 7 mph 1021mb 86f 83f
3:50pm 3ft 7s 6s 4 7 mph 1021mb 85f 83f
2:50pm 3ft 9s 6s 7 9 mph 1020.9mb 85f 83f
1:50pm 3ft 8s 6s 9 11 mph 1020.7mb 85f 82f
12:50pm 3ft 8s 6s 9 11 mph 1020.3mb 85f 83f
11:50am 3ft 9s 6s 9
mph
1020.2mb 85f 83f
10:50am 3ft 9s 6s 7 9 mph 1019.7mb 85f 82f
9:50am 2.5ft 9s 6s 9 11 mph 1019.6mb 85f 82f
8:50am 3ft 9s 6s 7 11 mph 1019.5mb 85f 82f
7:50am 2.5ft 10s 6s 9
mph
1019.4mb 85f 83f
6:50am 3ft 9s 6s 7 9 mph 1019.8mb 85f 83f
5:50am 3ft 9s 6s 7 9 mph 1020.4mb 85f 83f
4:50am 3ft 8s 6s 9 11 mph 1020.6mb 85f 83f
3:50am 3ft 8s 6s 7 9 mph 1020.9mb 85f 83f
2:50am 2.5ft 8s 6s 4
mph
1021mb 85f 83f
1:50am 3ft 8s 6s 4
mph
1021.3mb 85f 83f
12:50am 3.5ft 8s 6s 4 7 mph 1021.1mb 85f 83f
Sat 07/26 11:50pm 3.5ft 8s 6s 4 7 mph 1020.7mb 85f 83f
10:50pm 3.5ft 8s 7s 4 7 mph 1020.3mb 86f 84f
9:50pm 3.5ft 8s 6s 4 9 mph 1020.6mb 86f 84f
8:50pm 3ft 7s 6s 4 9 mph 1020.4mb 86f 84f
7:50pm 3.5ft 8s 6s 7 9 mph 1020.7mb 86f 83f
6:50pm 3.5ft 8s 6s 9 11 mph 1020.9mb 86f 83f
5:50pm 3.5ft 8s 6s 9 11 mph 1021.1mb 86f 83f
4:50pm 3.5ft 8s 6s 7 9 mph 1021.5mb 85f 83f
3:50pm 3.5ft 8s 6s 7 9 mph 1021.4mb 86f 83f
2:50pm 3.5ft 8s 6s 7 9 mph 1021.7mb 85f 83f
1:50pm 3.5ft 7s 6s 7
mph
1021.6mb 85f 82f
12:50pm 3ft 8s 6s 9
mph
1021.2mb 85f 83f
11:50am 2.5ft 8s 6s 9
mph
1020.8mb 84f 83f
10:50am 2.5ft 8s 6s 7 9 mph 1020.5mb 84f 82f
9:50am 2.5ft 8s 6s 7 9 mph 1020.2mb 84f 83f
8:50am 2.5ft 7s 5s 7 9 mph 1019.7mb 84f 82f
7:50am 2.5ft 8s 6s 9 11 mph 1019.6mb 84f 82f
6:50am 2.5ft 8s 5s 7 9 mph 1020mb 84f 82f
5:50am 2.5ft 7s 5s 9 11 mph 1020.4mb 85f 83f
4:50am 2.5ft 7s 5s 11 13 mph 1020.6mb 85f 83f
3:50am 2.5ft 7s 5s 11 13 mph 1020.9mb 85f 83f
2:50am 2.5ft 8s 5s 7 9 mph 1021.4mb 85f 83f
1:50am 2.5ft 7s 5s 2 4 mph 1021.3mb 85f 82f
12:50am 2.5ft 8s 5s 2
mph
1020.8mb 85f 81f
Fri 07/25 11:50pm 2.5ft 8s 5s 2 4 mph 1020.4mb 85f 81f
10:50pm 2.5ft 7s 5s 2 4 mph 1020.5mb 85f 80f
9:50pm 2.5ft 7s 5s 4 7 mph 1020.4mb 85f 78f
8:50pm 2.5ft 6s 5s 11 18 mph 1020.9mb 85f 74f
7:50pm 3ft 7s 5s 9 11 mph 1020.4mb 86f 83f
6:50pm 2.5ft 6s 5s 7 9 mph 1021.1mb 86f 83f
5:50pm 3ft 7s 5s 7 9 mph 1021.4mb 85f 83f
4:50pm 2.5ft 7s 5s 9 11 mph 1021.5mb 85f 83f
3:50pm 3ft 7s 5s 9 11 mph 1021.9mb 85f 83f
2:50pm 3ft 7s 5s 9 11 mph 1021.7mb 85f 83f
1:50pm 3ft 7s 5s 9 11 mph 1021.8mb 84f 83f
12:50pm 3ft 7s 5s 9 11 mph 1021.5mb 84f 83f
11:50am 3ft 7s 5s 11 13 mph 1021.1mb 84f 83f
10:50am 3ft 7s 5s 9 13 mph 1020.6mb 84f 83f
9:50am 3ft 7s 5s 11 13 mph 1020.2mb 84f 83f
8:50am 3.5ft 8s 5s 13 16 mph 1019.5mb 84f 83f
7:50am 3.5ft 8s 5s 11 13 mph 1019.5mb 84f 83f
6:50am 3ft 7s 5s 11 13 mph 1019.6mb 84f 83f
5:50am 3.5ft 6s 5s 13 16 mph 1020mb 84f 83f
4:50am 3.5ft 7s 5s 13 16 mph 1020.4mb 84f 83f
3:50am 3.5ft 7s 5s 13 16 mph 1020.4mb 84f 83f
2:50am 3.5ft 8s 5s 13 16 mph 1020.4mb 84f 83f
1:50am 3.5ft 8s 5s 13 16 mph 1020.1mb 84f 83f
12:50am 3.5ft 7s 5s 11 13 mph 1020.1mb 85f 83f
Thu 07/24 11:50pm 3.5ft 7s 5s 11 13 mph 1019.7mb 85f 83f
10:50pm 3.5ft 8s 5s 11 13 mph 1019.4mb 85f 84f
9:50pm 3.5ft 7s 5s 11 16 mph 1019.1mb 85f 84f
8:50pm 3.5ft 7s 5s 13 16 mph 1019mb 85f 83f
7:50pm 3.5ft 7s 5s 13 16 mph 1019.3mb 85f 84f
6:50pm 3.5ft 7s 5s 11 13 mph 1019.6mb 85f 83f
5:50pm 3.5ft 8s 5s 11 13 mph 1020mb 85f 83f
4:50pm 3.5ft 7s 5s 13 16 mph 1020.3mb 85f 83f
3:50pm 3.5ft 7s 5s 13 16 mph 1020.5mb 84f 82f
2:50pm 3.5ft 8s 5s 11 16 mph 1020.6mb 84f 82f
1:50pm 3.5ft 8s 5s 13 16 mph 1020.5mb 84f 82f
12:50pm 3.5ft 7s 5s 16 18 mph 1020.3mb 84f 83f
11:50am 3.5ft 6s 5s 16 18 mph 1020.1mb 84f 83f
10:50am 3.5ft 7s 5s 13 16 mph 1019.9mb 84f 83f
9:50am 3.5ft 7s 5s 13 16 mph 1019.3mb 84f 83f
8:50am 3.5ft 7s 5s 16 18 mph 1018.6mb 84f 82f
7:50am 3.5ft 7s 5s 13 16 mph 1018.7mb 84f 82f